Time;durP1;ratioP1;P1;durP2;ratioP2;P2;SDS_P1;SDS_P2;PMS_P1;PMS_P2;Temp;Humidity;BMP_temperature;BMP_pressure;BME280_temperature;BME280_humidity;BME280_pressure;Samples;Min_cycle;Max_cycle;Signal;HPM_P1;HPM_P2
2022/05/19 00:01:54;;;;;;;14.35;9.35;;;22.20;63.70;;;;;;5129102;27;20023;-64
2022/05/19 00:04:19;;;;;;;12.38;8.68;;;22.20;63.90;;;;;;5125932;27;20038;-64
2022/05/19 00:06:45;;;;;;;15.00;8.93;;;22.10;63.90;;;;;;5121150;27;20409;-64
2022/05/19 00:09:11;;;;;;;12.70;9.02;;;22.20;64.10;;;;;;5133451;27;20082;-64
2022/05/19 00:11:38;;;;;;;15.63;9.43;;;22.10;64.20;;;;;;5117367;27;20487;-64
2022/05/19 00:14:04;;;;;;;13.75;9.50;;;22.10;64.30;;;;;;5114437;28;20122;-64
2022/05/19 00:16:30;;;;;;;15.77;10.05;;;22.10;64.30;;;;;;5127402;28;20031;-64
2022/05/19 00:18:55;;;;;;;15.02;9.70;;;22.10;64.50;;;;;;5131313;27;20080;-64
2022/05/19 00:21:21;;;;;;;14.95;9.88;;;22.10;64.50;;;;;;5121434;27;20041;-64
2022/05/19 00:23:47;;;;;;;13.50;9.18;;;22.00;64.50;;;;;;5119561;28;20046;-64
2022/05/19 00:26:13;;;;;;;14.57;10.13;;;22.00;64.60;;;;;;5122148;28;20356;-64
2022/05/19 00:28:39;;;;;;;12.00;9.48;;;22.10;64.80;;;;;;5131424;27;20040;-64
2022/05/19 00:31:04;;;;;;;15.52;10.82;;;22.10;65.00;;;;;;5125253;27;20104;-64
2022/05/19 00:33:30;;;;;;;14.20;9.90;;;22.00;65.00;;;;;;5126773;28;20089;-64
2022/05/19 00:35:56;;;;;;;14.20;10.40;;;21.90;65.00;;;;;;5120335;27;20145;-64
2022/05/19 00:38:22;;;;;;;17.45;11.50;;;22.00;65.10;;;;;;5131956;27;20375;-64
2022/05/19 00:40:51;;;;;;;15.25;10.57;;;21.90;65.00;;;;;;5128619;28;20031;-64
2022/05/19 00:43:26;;;;;;;14.30;10.48;;;22.00;65.20;;;;;;5122170;28;20127;-64
2022/05/19 00:46:01;;;;;;;15.45;9.82;;;22.00;65.20;;;;;;5121130;27;20031;-64
2022/05/19 00:48:40;;;;;;;15.00;10.82;;;22.00;65.30;;;;;;5116734;28;20032;-64
2022/05/19 00:51:08;;;;;;;15.68;10.18;;;21.90;65.30;;;;;;5115128;28;20103;-64
2022/05/19 00:53:45;;;;;;;15.85;10.80;;;21.90;65.30;;;;;;5124217;28;20019;-64
2022/05/19 00:56:17;;;;;;;14.35;10.20;;;21.90;65.40;;;;;;5113645;28;20464;-64
2022/05/19 00:58:56;;;;;;;16.45;10.90;;;21.90;65.50;;;;;;5121077;27;20028;-64
2022/05/19 01:01:22;;;;;;;16.10;11.20;;;21.90;65.40;;;;;;5126496;27;20500;-64
2022/05/19 01:03:55;;;;;;;15.45;11.45;;;21.90;65.50;;;;;;5122638;28;20121;-64
2022/05/19 01:06:23;;;;;;;15.73;12.32;;;21.90;65.60;;;;;;5127729;27;20098;-64
2022/05/19 01:08:56;;;;;;;16.02;11.52;;;21.90;65.60;;;;;;5130496;28;20080;-64
2022/05/19 01:11:23;;;;;;;17.02;12.35;;;21.90;65.70;;;;;;5131845;28;20396;-64
2022/05/19 01:13:49;;;;;;;15.38;12.18;;;21.90;65.80;;;;;;5133608;27;20347;-64
2022/05/19 01:16:16;;;;;;;16.83;12.40;;;21.90;65.80;;;;;;5122175;27;20020;-64
2022/05/19 01:18:43;;;;;;;17.65;12.93;;;21.90;65.90;;;;;;5131851;27;20042;-64
2022/05/19 01:21:12;;;;;;;18.92;12.73;;;21.90;66.00;;;;;;5133136;27;20023;-64
2022/05/19 01:24:04;;;;;;;14.57;11.98;;;21.90;66.10;;;;;;5122185;27;21563;-64
2022/05/19 01:26:47;;;;;;;17.08;12.77;;;21.90;66.20;;;;;;5131584;27;20043;-64
2022/05/19 01:29:15;;;;;;;17.10;12.52;;;21.90;66.30;;;;;;5129874;27;20045;-64
2022/05/19 01:31:48;;;;;;;16.45;12.43;;;21.80;66.30;;;;;;5130792;27;20069;-67
2022/05/19 01:34:15;;;;;;;15.73;12.80;;;21.80;67.10;;;;;;5118851;27;20027;-63
2022/05/19 01:36:41;;;;;;;15.65;12.27;;;21.80;66.50;;;;;;5123659;27;20114;-63
2022/05/19 01:39:15;;;;;;;19.67;13.70;;;21.80;66.60;;;;;;5134097;27;20091;-64
2022/05/19 01:42:02;;;;;;;19.88;13.88;;;21.80;66.70;;;;;;5136531;27;20048;-64
2022/05/19 01:44:45;;;;;;;17.10;12.68;;;21.80;66.80;;;;;;5132626;27;20043;-64
2022/05/19 01:47:30;;;;;;;17.70;13.55;;;21.80;66.80;;;;;;5126352;27;20440;-64
2022/05/19 01:50:31;;;;;;;17.45;13.02;;;21.80;66.90;;;;;;5132303;27;20452;-64
2022/05/19 01:53:25;;;;;;;18.90;12.95;;;21.80;66.90;;;;;;5129456;27;20117;-63
2022/05/19 01:56:06;;;;;;;16.27;13.65;;;21.70;67.00;;;;;;5121557;27;20106;-64
2022/05/19 01:59:02;;;;;;;16.73;13.57;;;21.70;67.10;;;;;;5118854;27;20130;-64
2022/05/19 02:01:28;;;;;;;18.60;13.55;;;21.70;67.20;;;;;;5135786;27;20031;-64
2022/05/19 02:04:17;;;;;;;19.40;14.60;;;21.70;67.20;;;;;;5121366;27;20031;-64
2022/05/19 02:06:48;;;;;;;20.35;14.07;;;21.70;67.30;;;;;;5130459;27;20110;-64
2022/05/19 02:09:21;;;;;;;20.92;15.77;;;21.70;67.40;;;;;;5133970;27;20042;-64
2022/05/19 02:11:54;;;;;;;19.98;15.00;;;21.60;67.40;;;;;;5132153;27;20047;-64
2022/05/19 02:14:27;;;;;;;17.10;14.45;;;21.70;67.60;;;;;;5123759;27;20054;-63
2022/05/19 02:16:54;;;;;;;21.17;15.02;;;21.60;67.60;;;;;;5133214;27;20337;-64
2022/05/19 02:19:24;;;;;;;19.25;14.50;;;21.70;67.70;;;;;;5134147;27;20050;-64
2022/05/19 02:21:51;;;;;;;21.38;14.75;;;21.60;67.80;;;;;;5134658;27;20031;-64
2022/05/19 02:24:20;;;;;;;22.52;14.95;;;21.60;67.80;;;;;;5121574;27;20027;-63
2022/05/19 02:26:45;;;;;;;23.42;16.02;;;21.60;68.00;;;;;;5135044;27;20508;-64
2022/05/19 02:29:17;;;;;;;20.65;15.63;;;21.60;68.00;;;;;;5120351;27;20114;-64
2022/05/19 02:31:46;;;;;;;20.02;15.48;;;21.60;68.10;;;;;;5137323;27;20095;-64
2022/05/19 02:34:12;;;;;;;17.67;14.77;;;21.60;68.10;;;;;;5127871;27;20023;-64
2022/05/19 02:36:39;;;;;;;17.50;14.30;;;21.60;68.20;;;;;;5136110;27;20042;-64
2022/05/19 02:39:05;;;;;;;19.85;15.30;;;21.60;68.20;;;;;;5129801;27;20035;-64
2022/05/19 02:41:30;;;;;;;23.40;15.75;;;21.50;68.30;;;;;;5134413;27;20038;-64
2022/05/19 02:43:56;;;;;;;17.77;14.98;;;21.50;68.40;;;;;;5123539;27;20031;-64
2022/05/19 02:46:21;;;;;;;18.95;15.13;;;21.50;68.50;;;;;;5116788;28;20042;-64
2022/05/19 02:48:47;;;;;;;19.60;15.25;;;21.50;68.60;;;;;;5131202;27;20035;-64
2022/05/19 02:51:12;;;;;;;18.42;14.77;;;21.50;68.60;;;;;;5114857;27;20027;-64
2022/05/19 02:53:38;;;;;;;20.98;15.55;;;21.50;68.70;;;;;;5128037;27;20031;-64
2022/05/19 02:56:04;;;;;;;18.20;14.73;;;21.40;68.80;;;;;;5125843;27;20019;-66
2022/05/19 02:58:29;;;;;;;17.67;14.65;;;21.40;68.90;;;;;;5125961;27;20105;-70
2022/05/19 03:00:55;;;;;;;18.42;15.18;;;21.40;69.00;;;;;;5134018;27;20031;-64
2022/05/19 03:03:21;;;;;;;20.60;15.35;;;21.40;69.00;;;;;;5118119;27;20035;-64
2022/05/19 03:05:48;;;;;;;20.30;15.73;;;21.40;69.10;;;;;;5121108;27;20133;-64
2022/05/19 03:08:15;;;;;;;19.38;14.48;;;21.40;69.20;;;;;;5130740;27;20031;-65
2022/05/19 03:10:43;;;;;;;20.70;16.05;;;21.40;69.20;;;;;;5134635;27;20088;-64
2022/05/19 03:13:18;;;;;;;20.10;16.40;;;21.40;69.20;;;;;;5127059;27;20031;-63
2022/05/19 03:15:44;;;;;;;20.05;16.02;;;21.30;69.30;;;;;;5126875;27;20102;-64
2022/05/19 03:18:10;;;;;;;19.75;15.70;;;21.30;69.30;;;;;;5130033;27;20385;-64
2022/05/19 03:20:35;;;;;;;18.42;15.30;;;21.30;69.40;;;;;;5117236;27;20015;-64
2022/05/19 03:23:01;;;;;;;18.95;15.88;;;21.30;69.50;;;;;;5118407;27;20024;-66
2022/05/19 03:25:27;;;;;;;20.98;16.38;;;21.30;69.50;;;;;;5121265;27;20034;-64
2022/05/19 03:27:52;;;;;;;19.65;15.10;;;21.30;69.60;;;;;;5136008;27;20051;-64
2022/05/19 03:30:19;;;;;;;21.42;16.77;;;21.30;69.60;;;;;;5128014;27;20027;-64
2022/05/19 03:32:45;;;;;;;19.65;16.25;;;21.30;69.60;;;;;;5118892;27;20097;-64
2022/05/19 03:35:13;;;;;;;21.30;15.25;;;21.30;69.70;;;;;;5127785;27;20034;-64
2022/05/19 03:37:39;;;;;;;18.50;15.23;;;21.30;69.70;;;;;;5125045;27;20123;-64
2022/05/19 03:40:06;;;;;;;21.48;17.40;;;21.30;69.80;;;;;;5121346;27;20111;-64
2022/05/19 03:42:32;;;;;;;20.77;15.18;;;21.20;69.80;;;;;;5126275;27;20038;-64
2022/05/19 03:44:57;;;;;;;19.83;15.55;;;21.20;69.90;;;;;;5117281;27;20028;-64
2022/05/19 03:47:23;;;;;;;17.80;14.88;;;21.20;69.80;;;;;;5116743;27;20366;-64
2022/05/19 03:49:49;;;;;;;19.48;14.57;;;21.20;69.80;;;;;;5129841;27;20141;-64
2022/05/19 03:52:14;;;;;;;17.05;14.50;;;21.30;69.60;;;;;;5117412;27;20027;-64
2022/05/19 03:54:40;;;;;;;16.00;12.55;;;21.30;69.50;;;;;;5125009;27;20027;-64
2022/05/19 03:57:06;;;;;;;17.42;14.45;;;21.30;69.40;;;;;;5117776;27;20022;-64
2022/05/19 03:59:33;;;;;;;18.42;13.10;;;21.30;69.40;;;;;;5124591;27;20027;-64
2022/05/19 04:02:02;;;;;;;17.38;12.85;;;21.40;69.40;;;;;;5126109;27;20080;-64
2022/05/19 04:04:28;;;;;;;16.83;12.50;;;21.40;69.30;;;;;;5126546;27;20092;-66
2022/05/19 04:06:54;;;;;;;18.55;13.15;;;21.40;69.30;;;;;;5126493;27;20033;-66
2022/05/19 04:09:19;;;;;;;15.63;12.93;;;21.40;69.30;;;;;;5125206;28;20027;-66
2022/05/19 04:11:45;;;;;;;18.13;13.35;;;21.50;69.40;;;;;;5127804;28;20436;-66
2022/05/19 04:14:12;;;;;;;18.95;13.20;;;21.40;69.30;;;;;;5125210;28;20019;-66
2022/05/19 04:16:38;;;;;;;17.88;12.98;;;21.50;69.30;;;;;;5126098;28;20110;-66
2022/05/19 04:19:04;;;;;;;17.52;13.55;;;21.50;69.30;;;;;;5123120;27;20027;-66
2022/05/19 04:21:30;;;;;;;17.80;11.80;;;21.50;69.20;;;;;;5133571;27;20042;-66
2022/05/19 04:23:57;;;;;;;16.35;12.00;;;21.50;69.10;;;;;;5127718;27;20024;-65
2022/05/19 04:26:23;;;;;;;15.68;12.10;;;21.50;69.10;;;;;;5122229;28;20061;-66
2022/05/19 04:28:48;;;;;;;14.65;11.30;;;21.50;69.20;;;;;;5131826;28;20451;-65
2022/05/19 04:31:14;;;;;;;13.95;10.30;;;21.50;69.00;;;;;;5115705;28;20114;-66
2022/05/19 04:33:39;;;;;;;14.93;10.00;;;21.50;69.00;;;;;;5117462;28;20031;-66
2022/05/19 04:36:05;;;;;;;12.55;8.88;;;21.50;68.80;;;;;;5128623;27;20098;-66
2022/05/19 04:38:31;;;;;;;11.65;8.18;;;21.60;68.70;;;;;;5120028;27;20051;-66
2022/05/19 04:41:00;;;;;;;11.82;7.15;;;21.60;68.40;;;;;;5117611;28;20032;-66
2022/05/19 04:43:26;;;;;;;11.27;6.53;;;21.60;68.20;;;;;;5124473;27;20067;-65
2022/05/19 04:45:54;;;;;;;9.40;6.20;;;21.60;68.00;;;;;;5125061;27;20054;-66
2022/05/19 04:48:21;;;;;;;11.23;6.53;;;21.60;67.90;;;;;;5128045;27;20030;-65
2022/05/19 04:50:52;;;;;;;9.32;5.68;;;21.70;67.90;;;;;;5125457;27;20036;-66
2022/05/19 04:53:17;;;;;;;9.32;5.65;;;21.60;67.80;;;;;;5133370;27;20044;-66
2022/05/19 04:55:43;;;;;;;10.95;5.80;;;21.70;67.70;;;;;;5127908;27;20342;-65
2022/05/19 04:58:09;;;;;;;7.65;4.60;;;21.70;67.70;;;;;;5121389;27;20034;-65
2022/05/19 05:00:36;;;;;;;12.85;5.30;;;21.70;67.60;;;;;;5118100;27;20034;-65
2022/05/19 05:03:04;;;;;;;9.15;4.90;;;21.70;67.60;;;;;;5126009;27;20451;-65
2022/05/19 05:05:30;;;;;;;8.27;4.15;;;21.70;67.60;;;;;;5126918;27;20035;-65
2022/05/19 05:07:56;;;;;;;8.05;4.70;;;21.70;67.60;;;;;;5127036;27;20483;-65
2022/05/19 05:10:22;;;;;;;6.85;3.75;;;21.80;67.70;;;;;;5119807;27;20114;-65
2022/05/19 05:12:47;;;;;;;8.30;4.05;;;21.70;67.60;;;;;;5133569;27;20023;-65
2022/05/19 05:15:13;;;;;;;8.57;4.07;;;21.80;67.50;;;;;;5130929;27;20026;-65
2022/05/19 05:17:39;;;;;;;8.05;4.00;;;21.80;67.40;;;;;;5124472;27;20023;-65
2022/05/19 05:20:07;;;;;;;6.57;3.67;;;21.80;67.30;;;;;;5135188;27;20035;-65
2022/05/19 05:22:35;;;;;;;7.13;4.22;;;21.80;67.20;;;;;;5122294;27;20462;-65
2022/05/19 05:25:06;;;;;;;6.22;3.15;;;21.90;67.10;;;;;;5139185;27;20471;-65
2022/05/19 05:27:32;;;;;;;7.28;3.15;;;21.90;66.80;;;;;;5122834;27;20063;-65
2022/05/19 05:29:58;;;;;;;6.15;2.92;;;22.00;66.50;;;;;;5132482;27;20080;-65
2022/05/19 05:32:23;;;;;;;5.90;2.90;;;22.10;65.90;;;;;;5132888;27;20027;-65
2022/05/19 05:34:49;;;;;;;4.85;2.58;;;22.20;65.40;;;;;;5118235;28;20120;-64
2022/05/19 05:37:15;;;;;;;5.03;2.50;;;22.30;65.00;;;;;;5128594;27;20437;-65
2022/05/19 05:39:40;;;;;;;5.50;2.38;;;22.30;64.60;;;;;;5133692;27;20111;-64
2022/05/19 05:42:06;;;;;;;6.25;2.65;;;22.30;64.50;;;;;;5134346;27;20039;-65
2022/05/19 05:44:32;;;;;;;6.72;2.53;;;22.40;64.30;;;;;;5134406;27;20054;-64
2022/05/19 05:46:58;;;;;;;5.75;2.15;;;22.30;64.00;;;;;;5137998;27;20126;-64
2022/05/19 05:49:23;;;;;;;4.50;2.00;;;22.30;63.80;;;;;;5129352;27;20027;-64
2022/05/19 05:51:49;;;;;;;3.80;1.90;;;22.30;63.60;;;;;;5122967;27;20035;-64
2022/05/19 05:54:15;;;;;;;4.90;2.28;;;22.20;63.50;;;;;;5124067;27;20012;-65
2022/05/19 05:56:40;;;;;;;5.28;2.25;;;22.30;63.50;;;;;;5128813;27;20499;-65
2022/05/19 05:59:06;;;;;;;5.22;2.25;;;22.20;63.20;;;;;;5130745;27;20035;-65
2022/05/19 06:01:32;;;;;;;4.60;1.88;;;22.30;63.20;;;;;;5134983;27;20444;-65
2022/05/19 06:03:57;;;;;;;4.63;2.05;;;22.30;63.20;;;;;;5125177;27;20032;-65
2022/05/19 06:06:25;;;;;;;5.35;2.20;;;22.30;63.40;;;;;;5126768;27;20034;-65
2022/05/19 06:08:51;;;;;;;6.32;2.15;;;22.30;63.40;;;;;;5127182;27;20070;-65
2022/05/19 06:11:17;;;;;;;4.38;2.00;;;22.40;63.50;;;;;;5123101;27;20046;-65
2022/05/19 06:13:43;;;;;;;5.05;2.28;;;22.40;63.50;;;;;;5124288;27;20019;-65
2022/05/19 06:16:09;;;;;;;5.32;2.20;;;22.50;63.20;;;;;;5116458;27;20027;-65
2022/05/19 06:18:35;;;;;;;6.80;2.33;;;22.60;63.00;;;;;;5122487;27;20019;-66
2022/05/19 06:21:03;;;;;;;5.32;2.20;;;22.60;62.80;;;;;;5122611;27;20034;-64
2022/05/19 06:23:28;;;;;;;5.43;2.13;;;22.60;62.80;;;;;;5126223;27;20432;-64
2022/05/19 06:25:54;;;;;;;4.38;2.00;;;22.50;62.90;;;;;;5123146;27;20038;-64
2022/05/19 06:28:20;;;;;;;4.32;2.10;;;22.60;62.90;;;;;;5124612;27;20410;-65
2022/05/19 06:30:45;;;;;;;6.13;2.60;;;22.60;62.80;;;;;;5124021;27;20352;-64
2022/05/19 06:33:12;;;;;;;5.68;2.30;;;22.60;62.90;;;;;;5132287;27;20118;-65
2022/05/19 06:35:38;;;;;;;4.32;2.00;;;22.60;62.70;;;;;;5132341;27;20419;-65
2022/05/19 06:38:04;;;;;;;4.97;2.50;;;22.70;62.60;;;;;;5128009;27;20516;-64
2022/05/19 06:40:31;;;;;;;4.68;1.85;;;22.70;62.50;;;;;;5128704;27;20027;-64
2022/05/19 06:42:57;;;;;;;5.63;2.47;;;22.80;62.40;;;;;;5125475;27;20031;-63
2022/05/19 06:45:28;;;;;;;4.70;2.10;;;22.80;62.20;;;;;;5117569;27;20020;-65
2022/05/19 06:47:54;;;;;;;6.63;2.30;;;22.80;62.10;;;;;;5120851;27;20023;-64
2022/05/19 06:50:21;;;;;;;4.82;2.08;;;22.80;61.90;;;;;;5127979;27;20030;-64
2022/05/19 06:52:51;;;;;;;6.13;2.30;;;22.80;61.70;;;;;;5116456;27;20031;-64
2022/05/19 06:55:19;;;;;;;6.55;2.65;;;22.80;61.60;;;;;;5123172;27;20019;-64
2022/05/19 06:57:45;;;;;;;4.93;2.28;;;22.80;61.60;;;;;;5131097;27;20126;-63
2022/05/19 07:00:15;;;;;;;5.03;2.30;;;22.80;61.50;;;;;;5120308;27;20114;-64
2022/05/19 07:02:45;;;;;;;5.68;2.17;;;22.90;61.50;;;;;;5133392;27;20035;-64
2022/05/19 07:05:12;;;;;;;4.50;2.33;;;22.90;61.40;;;;;;5119701;27;20023;-64
2022/05/19 07:07:38;;;;;;;5.63;2.22;;;23.00;61.40;;;;;;5124319;27;20039;-64
2022/05/19 07:10:05;;;;;;;4.88;2.38;;;23.00;61.30;;;;;;5120612;27;20027;-64
2022/05/19 07:12:31;;;;;;;5.32;2.47;;;23.10;61.30;;;;;;5119102;27;20019;-64
2022/05/19 07:14:57;;;;;;;5.82;2.20;;;23.10;61.30;;;;;;5128188;27;20126;-64
2022/05/19 07:17:23;;;;;;;7.25;3.17;;;23.20;61.40;;;;;;5129025;27;20114;-64
2022/05/19 07:22:34;;;;;;;6.78;2.33;;;23.30;61.10;;;;;;5123321;27;20700;-64
2022/05/19 07:25:01;;;;;;;7.95;2.38;;;23.40;61.20;;;;;;5132533;27;20079;-64
2022/05/19 07:27:27;;;;;;;4.90;2.42;;;23.40;61.20;;;;;;5125631;27;20027;-64
2022/05/19 07:29:52;;;;;;;6.07;2.75;;;23.50;61.00;;;;;;5131513;27;20385;-63
2022/05/19 07:32:19;;;;;;;10.15;3.05;;;23.50;61.00;;;;;;5132460;27;20102;-64
2022/05/19 07:34:44;;;;;;;5.88;2.58;;;23.50;60.90;;;;;;5127144;27;20023;-64
2022/05/19 07:37:11;;;;;;;8.15;2.78;;;23.50;60.90;;;;;;5123408;27;20372;-64
2022/05/19 07:39:37;;;;;;;6.80;2.92;;;23.50;60.90;;;;;;5125316;27;20427;-64
2022/05/19 07:42:03;;;;;;;5.95;2.65;;;23.60;60.90;;;;;;5118273;27;20027;-64
2022/05/19 07:44:29;;;;;;;7.63;2.15;;;23.60;60.50;;;;;;5113502;28;20077;-65
2022/05/19 07:46:57;;;;;;;5.72;2.60;;;23.70;60.50;;;;;;5115646;27;20080;-64
2022/05/19 07:49:22;;;;;;;6.70;2.28;;;23.70;60.50;;;;;;5116069;27;20496;-64
2022/05/19 07:51:48;;;;;;;4.43;2.13;;;23.70;60.20;;;;;;5123205;27;20027;-64
2022/05/19 07:54:21;;;;;;;4.88;2.00;;;23.70;59.80;;;;;;5125726;27;20028;-63
2022/05/19 07:56:47;;;;;;;5.00;2.40;;;23.70;59.40;;;;;;5128608;27;20035;-64
2022/05/19 07:59:15;;;;;;;5.80;2.55;;;23.70;59.50;;;;;;5116628;27;20036;-63
2022/05/19 08:01:42;;;;;;;6.13;2.33;;;23.70;59.60;;;;;;5120368;27;20031;-63
2022/05/19 08:04:10;;;;;;;5.82;2.50;;;23.70;59.80;;;;;;5121792;27;20023;-64
2022/05/19 08:06:36;;;;;;;5.47;2.65;;;23.70;60.10;;;;;;5116714;28;20035;-64
2022/05/19 08:10:20;;;;;;;5.07;2.75;;;23.70;60.30;;;;;;5126160;27;20392;-64
2022/05/19 08:11:50;;;;;;;7.85;3.30;;;23.80;60.20;;;;;;5113712;28;20119;-64
2022/05/19 08:17:01;;;;;;;7.85;2.97;;;24.00;60.00;;;;;;5116019;28;20066;-64
2022/05/19 08:19:27;;;;;;;6.60;2.90;;;24.30;59.70;;;;;;5115805;28;20089;-64
2022/05/19 08:21:52;;;;;;;6.68;3.20;;;24.50;59.10;;;;;;5119848;27;20069;-64
2022/05/19 08:24:18;;;;;;;6.90;3.13;;;24.80;58.60;;;;;;5134851;27;20031;-63
2022/05/19 08:26:45;;;;;;;6.18;2.78;;;25.00;58.20;;;;;;5133397;27;20035;-64
2022/05/19 08:29:10;;;;;;;5.68;2.38;;;25.30;57.70;;;;;;5120381;27;20035;-64
2022/05/19 08:31:36;;;;;;;5.80;2.65;;;25.50;57.10;;;;;;5119390;27;20026;-64
2022/05/19 08:34:03;;;;;;;6.47;2.70;;;25.90;56.80;;;;;;5125155;27;20474;-67
2022/05/19 08:36:29;;;;;;;6.60;3.17;;;26.20;56.20;;;;;;5118859;27;20035;-65
2022/05/19 08:38:56;;;;;;;4.97;2.50;;;26.60;55.50;;;;;;5135046;27;20039;-64
2022/05/19 08:41:30;;;;;;;7.10;2.88;;;26.90;55.00;;;;;;5139835;27;20035;-64
2022/05/19 08:44:27;;;;;;;8.65;2.72;;;27.10;54.30;;;;;;5119430;27;20070;-64
2022/05/19 08:46:54;;;;;;;6.20;2.55;;;27.30;54.10;;;;;;5138739;27;20039;-64
2022/05/19 08:49:45;;;;;;;4.72;2.53;;;27.30;53.90;;;;;;5139799;27;20431;-64
2022/05/19 08:52:14;;;;;;;6.97;2.70;;;27.40;53.70;;;;;;5129017;27;20032;-65
2022/05/19 08:54:44;;;;;;;5.32;2.65;;;27.60;53.70;;;;;;5119177;28;20031;-64
2022/05/19 08:57:19;;;;;;;5.93;2.90;;;27.70;53.40;;;;;;5119445;28;20371;-65
2022/05/19 09:00:17;;;;;;;5.75;2.75;;;28.00;53.00;;;;;;5119426;28;20265;-65
2022/05/19 09:03:08;;;;;;;7.70;2.80;;;28.20;52.40;;;;;;5127185;27;20089;-65
2022/05/19 09:05:46;;;;;;;6.90;3.03;;;28.30;51.90;;;;;;5117683;28;20397;-65
2022/05/19 09:08:20;;;;;;;6.05;3.03;;;28.50;51.70;;;;;;5117008;27;20364;-65
2022/05/19 09:10:49;;;;;;;6.72;2.97;;;28.70;51.30;;;;;;5118549;28;20039;-65
2022/05/19 09:13:29;;;;;;;6.07;2.80;;;28.80;51.00;;;;;;5118745;28;20454;-65
2022/05/19 09:15:59;;;;;;;6.68;2.83;;;28.90;50.90;;;;;;5118636;28;20031;-65
2022/05/19 09:18:33;;;;;;;6.60;2.95;;;28.80;50.70;;;;;;5117652;28;20027;-65
2022/05/19 09:21:00;;;;;;;6.80;3.22;;;28.70;50.60;;;;;;5118945;28;20020;-65
2022/05/19 09:23:28;;;;;;;6.40;2.97;;;28.70;50.90;;;;;;5117680;27;20028;-65
2022/05/19 09:26:07;;;;;;;7.90;3.33;;;28.60;51.00;;;;;;5118486;28;20038;-64
2022/05/19 09:28:35;;;;;;;7.05;3.00;;;28.50;50.80;;;;;;5118036;27;20106;-65
2022/05/19 09:31:00;;;;;;;6.03;2.78;;;28.50;51.00;;;;;;5118402;28;20085;-62
2022/05/19 09:33:37;;;;;;;7.13;3.35;;;28.50;50.90;;;;;;5117146;28;20027;-62
2022/05/19 09:36:11;;;;;;;7.38;3.25;;;28.60;50.30;;;;;;5118471;27;20047;-62
2022/05/19 09:38:44;;;;;;;6.40;3.35;;;28.70;50.30;;;;;;5117955;28;20058;-65
2022/05/19 09:41:19;;;;;;;7.55;3.40;;;28.70;50.30;;;;;;5118161;28;20429;-65
2022/05/19 09:43:51;;;;;;;9.00;3.55;;;28.70;50.30;;;;;;5121140;27;20035;-64
2022/05/19 09:46:17;;;;;;;6.75;3.53;;;28.80;50.60;;;;;;5132550;27;20035;-65
2022/05/19 09:49:04;;;;;;;7.38;3.72;;;28.80;50.40;;;;;;5138882;27;20046;-65
2022/05/19 09:51:47;;;;;;;8.45;3.78;;;28.70;50.20;;;;;;5137857;27;20035;-65
2022/05/19 09:54:14;;;;;;;7.97;3.95;;;28.60;50.40;;;;;;5138108;27;20031;-65
2022/05/19 09:56:49;;;;;;;8.18;4.15;;;28.40;50.40;;;;;;5138214;27;20456;-65
2022/05/19 09:59:59;;;;;;;6.75;3.72;;;28.20;50.60;;;;;;5127604;27;20335;-65
2022/05/19 10:02:25;;;;;;;7.13;2.88;;;28.00;50.80;;;;;;5095750;28;20039;-65
2022/05/19 10:04:57;;;;;;;6.15;3.05;;;27.80;50.80;;;;;;5095648;28;20035;-65
2022/05/19 10:07:29;;;;;;;7.05;3.58;;;27.70;50.80;;;;;;5094473;28;20423;-65
2022/05/19 10:09:57;;;;;;;5.40;2.72;;;27.60;50.90;;;;;;5078809;28;20032;-65
2022/05/19 10:12:30;;;;;;;7.32;2.72;;;27.50;51.00;;;;;;5095104;28;20450;-65
2022/05/19 10:15:00;;;;;;;6.07;2.97;;;27.40;51.00;;;;;;5095141;28;20046;-65
2022/05/19 10:17:47;;;;;;;6.00;3.08;;;27.40;51.20;;;;;;5095716;28;20074;-65
2022/05/19 10:20:18;;;;;;;6.30;3.30;;;27.40;51.60;;;;;;5095017;28;20197;-65
2022/05/19 10:23:10;;;;;;;5.68;2.72;;;27.60;51.60;;;;;;5077609;28;20436;-65
2022/05/19 10:25:59;;;;;;;5.55;2.80;;;27.80;50.80;;;;;;5075066;28;20531;-65
2022/05/19 10:32:12;;;;;;;6.13;2.58;;;28.20;50.00;;;;;;5075121;28;20365;-65
2022/05/19 10:34:54;;;;;;;6.60;2.55;;;28.40;49.70;;;;;;5115900;28;20035;-65
2022/05/19 10:37:50;;;;;;;7.03;2.72;;;28.50;49.50;;;;;;5116184;27;20047;-65
2022/05/19 10:40:28;;;;;;;5.00;2.38;;;28.60;50.10;;;;;;5116893;27;20165;-65
2022/05/19 10:43:12;;;;;;;5.10;2.45;;;28.70;48.90;;;;;;5117176;27;20043;-65
2022/05/19 10:45:40;;;;;;;6.00;2.03;;;28.80;48.40;;;;;;5125936;27;20455;-65
2022/05/19 10:48:37;;;;;;;5.13;2.35;;;28.80;48.30;;;;;;5122682;27;20119;-65
2022/05/19 10:51:20;;;;;;;4.13;2.33;;;28.80;47.90;;;;;;5122058;27;20058;-66
2022/05/19 10:53:59;;;;;;;5.10;2.28;;;28.90;48.10;;;;;;5119776;27;20509;-65
2022/05/19 10:56:37;;;;;;;4.93;2.47;;;28.80;47.60;;;;;;5122754;27;20031;-65
2022/05/19 10:59:26;;;;;;;5.40;2.22;;;28.80;47.60;;;;;;5122569;27;20028;-65
2022/05/19 11:02:09;;;;;;;6.35;2.90;;;28.80;47.90;;;;;;5126679;27;20043;-65
2022/05/19 11:04:53;;;;;;;6.22;2.65;;;28.80;47.80;;;;;;5135865;27;20055;-65
2022/05/19 11:07:43;;;;;;;6.55;2.80;;;28.70;47.90;;;;;;5126880;27;20162;-65
2022/05/19 11:10:31;;;;;;;5.93;2.60;;;28.70;47.90;;;;;;5133554;27;20118;-65
2022/05/19 11:13:34;;;;;;;5.28;2.75;;;28.80;48.00;;;;;;5113191;28;20106;-65
2022/05/19 11:16:27;;;;;;;7.72;3.35;;;28.70;48.20;;;;;;5116450;27;20059;-65
2022/05/19 11:19:07;;;;;;;7.78;3.10;;;28.60;48.30;;;;;;5118137;27;20031;-65
2022/05/19 11:21:46;;;;;;;5.90;3.17;;;28.50;48.50;;;;;;5131574;27;20046;-65
2022/05/19 11:24:23;;;;;;;6.50;2.92;;;28.50;48.40;;;;;;5117438;27;20028;-65
2022/05/19 11:27:13;;;;;;;5.65;2.85;;;28.50;48.70;;;;;;5128794;27;20031;-65
2022/05/19 11:29:47;;;;;;;5.68;2.92;;;28.40;49.00;;;;;;5102057;27;20028;-65
2022/05/19 11:32:27;;;;;;;5.45;2.95;;;28.20;49.20;;;;;;5132254;27;20400;-65
2022/05/19 11:34:56;;;;;;;6.00;3.20;;;28.00;49.20;;;;;;5116750;27;20092;-65
2022/05/19 11:37:31;;;;;;;5.78;2.70;;;27.90;49.50;;;;;;5115066;27;20035;-65
2022/05/19 11:40:32;;;;;;;7.28;3.47;;;27.90;49.60;;;;;;5123899;27;20028;-65
2022/05/19 11:43:27;;;;;;;5.75;2.80;;;27.80;49.60;;;;;;5116759;27;20364;-65
2022/05/19 11:46:06;;;;;;;6.28;2.97;;;27.60;49.70;;;;;;5118295;27;20110;-65
2022/05/19 11:55:47;;;;;;;6.70;3.33;;;27.20;51.20;;;;;;5121401;27;20324;-65
2022/05/19 11:58:03;;;;;;;5.85;3.25;;;27.00;52.30;;;;;;5130040;27;20031;-65
2022/05/19 12:00:52;;;;;;;8.18;3.65;;;26.80;53.30;;;;;;5121450;27;20035;-65
2022/05/19 12:03:59;;;;;;;6.80;3.20;;;26.60;54.50;;;;;;5101201;28;20028;-65
2022/05/19 12:06:34;;;;;;;7.70;3.65;;;26.50;55.60;;;;;;5065122;28;20461;-65
2022/05/19 12:09:21;;;;;;;8.07;3.92;;;26.30;56.10;;;;;;5044544;28;20032;-65
2022/05/19 12:11:56;;;;;;;6.85;3.25;;;26.20;56.90;;;;;;5060474;28;20048;-65
2022/05/19 12:14:24;;;;;;;7.32;3.67;;;26.10;56.80;;;;;;5043832;28;20043;-65
2022/05/19 12:16:59;;;;;;;10.43;4.18;;;26.00;57.30;;;;;;5071771;28;20067;-65
2022/05/19 12:19:33;;;;;;;12.13;4.30;;;26.00;58.20;;;;;;5054681;28;20044;-64
2022/05/19 12:22:00;;;;;;;12.75;4.53;;;25.80;58.60;;;;;;5071764;28;20037;-64
2022/05/19 12:24:31;;;;;;;11.93;2.75;;;25.60;59.30;;;;;;5063927;28;20036;-65
2022/05/19 12:27:10;;;;;;;15.05;2.72;;;25.10;60.30;;;;;;5072232;28;20122;-65
2022/05/19 12:29:43;;;;;;;7.63;1.55;;;24.40;62.10;;;;;;5058820;28;20045;-64
2022/05/19 12:32:16;;;;;;;6.65;1.52;;;23.60;63.40;;;;;;5052717;28;20107;-64
2022/05/19 12:34:49;;;;;;;3.40;1.02;;;22.90;64.80;;;;;;5063901;28;20110;-64
2022/05/19 12:37:15;;;;;;;4.07;1.10;;;22.40;65.90;;;;;;5060639;28;20045;-64
2022/05/19 12:39:46;;;;;;;3.25;0.90;;;22.10;66.70;;;;;;5058851;28;20033;-64
2022/05/19 12:42:26;;;;;;;2.72;0.85;;;21.80;67.40;;;;;;5060762;28;20044;-65
2022/05/19 12:44:56;;;;;;;3.70;1.25;;;21.70;68.60;;;;;;5124337;28;20328;-64
2022/05/19 12:47:30;;;;;;;2.40;1.10;;;21.60;68.40;;;;;;5126276;27;20057;-64
2022/05/19 12:50:06;;;;;;;2.90;1.10;;;21.50;68.90;;;;;;5125898;28;20113;-64
2022/05/19 12:52:53;;;;;;;3.78;1.35;;;21.40;69.30;;;;;;5117965;27;20030;-65
2022/05/19 12:55:25;;;;;;;4.55;1.40;;;21.40;69.80;;;;;;5121102;27;20358;-64
2022/05/19 12:58:29;;;;;;;8.38;1.80;;;21.40;69.90;;;;;;5117323;28;20058;-64
2022/05/19 13:00:56;;;;;;;4.88;1.75;;;21.40;70.40;;;;;;5126661;28;20035;-64
2022/05/19 13:03:25;;;;;;;4.25;1.67;;;21.40;70.50;;;;;;5119146;28;20047;-64
2022/05/19 13:05:59;;;;;;;5.75;2.05;;;21.40;70.60;;;;;;5129896;27;20023;-64
2022/05/19 13:08:33;;;;;;;6.03;2.40;;;21.40;71.00;;;;;;5114861;27;20367;-64
2022/05/19 13:11:03;;;;;;;6.85;2.30;;;21.40;71.10;;;;;;5131051;27;20023;-64
2022/05/19 13:13:51;;;;;;;7.07;2.33;;;21.50;71.30;;;;;;5130005;27;20481;-64
2022/05/19 13:16:29;;;;;;;4.30;1.98;;;21.50;71.50;;;;;;5134696;27;20039;-64
2022/05/19 13:19:06;;;;;;;5.72;2.08;;;21.50;71.50;;;;;;5136369;27;20517;-64